Time;durP1;ratioP1;P1;durP2;ratioP2;P2;SDS_P1;SDS_P2;PMS_P1;PMS_P2;Temp;Humidity;BMP_temperature;BMP_pressure;BME280_temperature;BME280_humidity;BME280_pressure;Samples;Min_cycle;Max_cycle;Signal;HPM_P1;HPM_P2
2022/04/13 00:01:30;;;;;;;2.43;1.93;;;18.90;82.50;;;;;;5021821;28;20610;-74
2022/04/13 00:03:57;;;;;;;2.37;1.60;;;18.80;82.90;;;;;;5031465;28;20539;-75
2022/04/13 00:06:24;;;;;;;2.40;2.20;;;18.80;83.00;;;;;;5032647;28;20480;-74
2022/04/13 00:08:55;;;;;;;3.53;2.10;;;18.60;85.70;;;;;;5026554;28;20467;-73
2022/04/13 00:11:22;;;;;;;5.23;2.40;;;18.60;86.70;;;;;;5029956;28;20460;-74
2022/04/13 00:13:49;;;;;;;4.43;1.90;;;18.50;89.70;;;;;;5026271;28;20490;-74
2022/04/13 00:16:19;;;;;;;3.70;2.33;;;18.30;90.50;;;;;;5029286;28;20494;-73
2022/04/13 00:18:45;;;;;;;9.10;2.53;;;18.30;91.20;;;;;;5032900;28;21094;-74
2022/04/13 00:21:12;;;;;;;2.80;2.27;;;18.20;91.90;;;;;;5029028;28;20451;-74
2022/04/13 00:23:47;;;;;;;7.23;2.30;;;18.10;92.90;;;;;;5030682;28;20452;-74
2022/04/13 00:26:15;;;;;;;4.23;3.83;;;18.00;93.70;;;;;;5025873;28;20535;-72
2022/04/13 00:28:42;;;;;;;2.93;2.27;;;17.90;93.10;;;;;;5030228;28;21125;-74
2022/04/13 00:31:09;;;;;;;2.00;1.80;;;17.80;92.80;;;;;;5028271;28;20457;-74
2022/04/13 00:33:35;;;;;;;4.37;2.07;;;17.80;94.80;;;;;;5028091;28;20953;-74
2022/04/13 00:36:02;;;;;;;3.10;2.30;;;17.70;94.50;;;;;;5030018;28;20541;-75
2022/04/13 00:38:29;;;;;;;2.37;2.17;;;17.60;94.60;;;;;;5024821;28;20530;-74
2022/04/13 00:40:55;;;;;;;4.40;2.70;;;17.60;96.40;;;;;;5030831;28;21937;-74
2022/04/13 00:43:24;;;;;;;2.57;2.37;;;17.50;97.30;;;;;;5017745;28;21083;-74
2022/04/13 00:45:52;;;;;;;2.67;2.03;;;17.50;98.40;;;;;;5029929;28;20533;-75
2022/04/13 00:48:28;;;;;;;2.60;2.00;;;17.40;98.60;;;;;;5024969;28;20705;-74
2022/04/13 00:50:55;;;;;;;6.10;2.20;;;17.30;99.40;;;;;;5028201;28;20459;-74
2022/04/13 00:53:24;;;;;;;3.50;2.20;;;17.30;99.90;;;;;;5031010;28;20483;-74
2022/04/13 00:55:55;;;;;;;2.40;1.97;;;17.30;99.90;;;;;;5026182;28;20834;-74
2022/04/13 00:58:27;;;;;;;3.60;2.10;;;17.30;99.90;;;;;;5031394;28;20537;-74
2022/04/13 01:00:54;;;;;;;3.90;2.43;;;17.20;99.90;;;;;;5026091;28;20478;-74
2022/04/13 01:03:24;;;;;;;3.47;2.37;;;17.00;99.90;;;;;;5026391;28;20426;-74
2022/04/13 01:05:52;;;;;;;2.17;1.80;;;17.00;99.90;;;;;;5023475;28;20555;-74
2022/04/13 01:08:20;;;;;;;2.77;2.27;;;17.00;99.90;;;;;;5028206;28;20452;-74
2022/04/13 01:10:48;;;;;;;4.93;2.03;;;17.00;99.90;;;;;;5023477;28;21024;-74
2022/04/13 01:13:16;;;;;;;3.93;2.77;;;17.00;99.90;;;;;;5026783;28;21026;-74
2022/04/13 01:15:44;;;;;;;3.00;1.80;;;17.00;99.90;;;;;;5030703;28;20521;-74
2022/04/13 01:18:13;;;;;;;2.50;2.10;;;17.00;99.90;;;;;;5027974;28;20908;-74
2022/04/13 01:20:52;;;;;;;3.43;3.13;;;16.90;99.90;;;;;;5026481;28;20954;-73
2022/04/13 01:23:20;;;;;;;3.03;2.10;;;16.70;99.90;;;;;;5027911;28;20468;-74
2022/04/13 01:25:48;;;;;;;3.77;1.93;;;16.70;99.90;;;;;;5029017;28;20452;-73
2022/04/13 01:28:16;;;;;;;3.97;2.67;;;16.60;99.90;;;;;;5028460;28;22441;-73
2022/04/13 01:30:43;;;;;;;2.50;2.30;;;16.50;99.90;;;;;;5025067;28;20481;-74
2022/04/13 01:33:10;;;;;;;3.93;2.80;;;16.50;99.90;;;;;;5026114;28;21015;-73
2022/04/13 01:35:37;;;;;;;5.00;2.47;;;16.40;99.90;;;;;;5027292;28;20519;-73
2022/04/13 01:38:03;;;;;;;2.53;2.27;;;16.40;99.90;;;;;;5024756;28;21013;-74
2022/04/13 01:40:32;;;;;;;3.13;2.53;;;16.40;99.90;;;;;;5028819;28;20971;-73
2022/04/13 01:42:58;;;;;;;2.77;2.57;;;16.30;99.90;;;;;;5025379;28;20463;-73
2022/04/13 01:45:25;;;;;;;21.23;2.87;;;16.20;99.90;;;;;;5027070;28;20467;-73
2022/04/13 01:47:53;;;;;;;6.93;2.43;;;16.20;99.90;;;;;;5025590;28;20476;-73
2022/04/13 01:50:23;;;;;;;3.03;2.30;;;16.10;99.90;;;;;;5020422;28;20573;-74
2022/04/13 01:52:50;;;;;;;4.20;2.50;;;16.00;99.90;;;;;;5024437;28;20451;-73
2022/04/13 01:55:17;;;;;;;2.50;2.30;;;16.00;99.90;;;;;;5029637;28;20478;-74
2022/04/13 01:57:46;;;;;;;2.40;2.17;;;16.00;99.90;;;;;;5030694;28;20553;-73
2022/04/13 02:00:13;;;;;;;4.70;2.63;;;16.00;99.90;;;;;;5022248;28;20458;-73
2022/04/13 02:02:40;;;;;;;4.40;2.57;;;16.00;99.90;;;;;;5021749;28;20962;-73
2022/04/13 02:05:08;;;;;;;7.03;2.40;;;15.90;99.90;;;;;;5024329;28;20874;-73
2022/04/13 02:07:35;;;;;;;4.40;2.90;;;15.90;99.90;;;;;;5029633;28;20483;-74
2022/04/13 02:10:05;;;;;;;6.30;2.20;;;15.90;99.90;;;;;;5026250;28;20513;-74
2022/04/13 02:12:32;;;;;;;3.63;2.50;;;15.90;99.90;;;;;;5022608;28;20715;-74
2022/04/13 02:15:10;;;;;;;2.93;2.63;;;15.70;99.90;;;;;;5025990;28;20454;-74
2022/04/13 02:17:38;;;;;;;3.30;2.40;;;15.70;99.90;;;;;;5024556;28;20459;-74
2022/04/13 02:20:07;;;;;;;2.77;2.27;;;15.70;99.90;;;;;;5032568;28;20486;-73
2022/04/13 02:22:36;;;;;;;4.47;2.97;;;15.70;99.90;;;;;;5025232;28;20492;-74
2022/04/13 02:25:05;;;;;;;2.70;2.50;;;15.70;99.90;;;;;;5027022;28;20444;-74
2022/04/13 02:27:31;;;;;;;4.70;2.77;;;15.60;99.90;;;;;;5030868;28;20473;-74
2022/04/13 02:30:01;;;;;;;4.10;2.30;;;15.60;99.90;;;;;;5022619;28;20796;-74
2022/04/13 02:32:31;;;;;;;2.73;1.80;;;15.50;99.90;;;;;;5017144;28;21921;-74
2022/04/13 02:35:00;;;;;;;5.67;2.70;;;15.30;99.90;;;;;;5040381;28;20461;-74
2022/04/13 02:37:27;;;;;;;3.43;2.23;;;15.30;99.90;;;;;;5036934;28;20585;-74
2022/04/13 02:39:54;;;;;;;2.97;2.60;;;15.20;99.90;;;;;;5033130;28;20575;-74
2022/04/13 02:42:20;;;;;;;3.80;2.50;;;15.30;99.90;;;;;;5033482;28;20459;-74
2022/04/13 02:44:50;;;;;;;4.20;3.20;;;15.20;99.90;;;;;;5036613;28;20455;-74
2022/04/13 02:47:18;;;;;;;3.50;2.43;;;15.10;99.90;;;;;;5037544;28;20976;-74
2022/04/13 02:49:48;;;;;;;2.73;2.47;;;15.10;99.90;;;;;;5035490;28;20472;-74
2022/04/13 02:52:14;;;;;;;3.77;2.30;;;15.10;99.90;;;;;;5037368;28;20953;-72
2022/04/13 02:54:43;;;;;;;4.73;3.13;;;15.00;99.90;;;;;;5034689;28;20533;-74
2022/04/13 02:57:10;;;;;;;3.40;2.40;;;14.90;99.90;;;;;;5038085;28;20453;-75
2022/04/13 02:59:37;;;;;;;5.17;3.90;;;14.90;99.90;;;;;;5029549;28;20525;-74
2022/04/13 03:02:09;;;;;;;3.70;3.07;;;14.80;99.90;;;;;;5034576;28;20463;-74
2022/04/13 03:04:40;;;;;;;9.67;3.43;;;14.70;99.90;;;;;;5037722;28;20455;-74
2022/04/13 03:07:09;;;;;;;3.80;2.90;;;14.70;99.90;;;;;;5034506;28;20844;-75
2022/04/13 03:09:37;;;;;;;4.73;3.47;;;14.60;99.90;;;;;;5033111;28;20467;-75
2022/04/13 03:12:05;;;;;;;6.60;2.93;;;14.50;99.90;;;;;;5030946;28;20462;-74
2022/04/13 03:14:34;;;;;;;4.93;2.90;;;14.50;99.90;;;;;;5038301;28;21056;-74
2022/04/13 03:17:04;;;;;;;5.93;2.87;;;14.40;99.90;;;;;;5025860;28;20474;-75
2022/04/13 03:19:31;;;;;;;5.00;2.27;;;14.40;99.90;;;;;;5036148;28;20472;-74
2022/04/13 03:21:59;;;;;;;9.00;4.33;;;14.10;99.90;;;;;;5034502;28;20525;-75
2022/04/13 03:24:27;;;;;;;2.87;2.50;;;14.10;99.90;;;;;;5032128;28;20971;-75
2022/04/13 03:26:54;;;;;;;4.27;3.17;;;14.10;99.90;;;;;;5026324;28;21014;-75
2022/04/13 03:29:22;;;;;;;4.47;2.60;;;14.10;99.90;;;;;;5034490;28;21002;-74
2022/04/13 03:31:49;;;;;;;3.20;2.30;;;14.10;99.90;;;;;;5030055;28;20469;-75
2022/04/13 03:34:20;;;;;;;12.00;3.10;;;14.00;99.90;;;;;;5040075;28;20987;-74
2022/04/13 03:36:49;;;;;;;5.80;2.57;;;14.10;99.90;;;;;;5034149;28;20467;-74
2022/04/13 03:41:54;;;;;;;4.77;2.80;;;13.90;99.90;;;;;;4967801;28;20475;-73
2022/04/13 03:44:21;;;;;;;2.70;2.10;;;13.90;99.90;;;;;;4993997;28;20851;-73
2022/04/13 03:46:48;;;;;;;4.90;3.50;;;13.90;99.90;;;;;;4999700;28;20472;-73
2022/04/13 03:49:15;;;;;;;4.37;2.70;;;13.90;99.90;;;;;;4997576;28;20467;-73
2022/04/13 03:51:41;;;;;;;7.60;2.90;;;13.90;99.90;;;;;;4994132;28;20484;-73
2022/04/13 03:54:09;;;;;;;3.27;2.97;;;13.90;99.90;;;;;;4991857;28;20473;-73
2022/04/13 03:56:37;;;;;;;5.93;2.73;;;13.80;99.90;;;;;;4989404;28;20935;-73
2022/04/13 03:59:04;;;;;;;4.97;2.70;;;13.70;99.90;;;;;;5000327;28;20451;-73
2022/04/13 04:01:31;;;;;;;9.93;3.27;;;13.70;99.90;;;;;;4992784;28;20463;-73
2022/04/13 04:03:58;;;;;;;6.60;3.10;;;13.70;99.90;;;;;;4990758;28;20474;-74
2022/04/13 04:06:25;;;;;;;14.63;3.13;;;13.70;99.90;;;;;;4997203;28;20445;-74
2022/04/13 04:08:51;;;;;;;8.23;3.63;;;13.60;99.90;;;;;;4994094;28;20473;-74
2022/04/13 04:11:18;;;;;;;5.70;2.90;;;13.60;99.90;;;;;;4990890;28;20532;-74
2022/04/13 04:13:46;;;;;;;5.20;3.10;;;13.60;99.90;;;;;;4982072;28;20469;-74
2022/04/13 04:16:13;;;;;;;3.80;2.40;;;13.60;99.90;;;;;;4988804;28;20504;-74
2022/04/13 04:18:40;;;;;;;8.23;2.83;;;13.60;99.90;;;;;;4992376;28;20457;-73
2022/04/13 04:21:06;;;;;;;7.20;4.37;;;13.60;99.90;;;;;;4989930;28;20488;-74
2022/04/13 04:23:33;;;;;;;4.33;3.20;;;13.60;99.90;;;;;;4989237;28;20489;-73
2022/04/13 04:26:01;;;;;;;3.70;2.63;;;13.50;99.90;;;;;;4984603;28;20553;-73
2022/04/13 04:28:27;;;;;;;5.90;3.73;;;13.50;99.90;;;;;;4992222;28;20578;-73
2022/04/13 04:30:55;;;;;;;2.87;2.30;;;13.50;99.90;;;;;;4995694;28;20477;-73
2022/04/13 04:33:23;;;;;;;2.93;2.67;;;13.60;99.90;;;;;;4997549;28;20470;-75
2022/04/13 04:35:51;;;;;;;4.70;2.67;;;13.50;99.90;;;;;;4983925;28;20481;-73
2022/04/13 04:38:18;;;;;;;4.40;3.00;;;13.40;99.90;;;;;;4991985;28;21097;-73
2022/04/13 04:40:45;;;;;;;5.13;3.80;;;13.20;99.90;;;;;;4994777;28;20484;-73
2022/04/13 04:43:11;;;;;;;6.33;2.73;;;13.20;99.90;;;;;;4991337;28;22215;-73
2022/04/13 04:45:38;;;;;;;6.40;2.43;;;13.30;99.90;;;;;;4992924;28;20857;-73
2022/04/13 04:48:07;;;;;;;6.23;2.13;;;13.40;99.90;;;;;;4987172;28;20433;-73
2022/04/13 04:50:35;;;;;;;5.20;2.97;;;13.50;99.90;;;;;;4990047;28;20471;-74
2022/04/13 04:53:01;;;;;;;2.50;2.30;;;13.50;99.90;;;;;;4989882;28;20470;-72
2022/04/13 04:55:28;;;;;;;13.13;3.60;;;13.60;99.90;;;;;;4991045;28;20525;-74
2022/04/13 04:57:55;;;;;;;3.57;2.93;;;13.60;99.90;;;;;;4983431;28;20501;-74
2022/04/13 05:00:23;;;;;;;6.90;3.57;;;13.60;99.90;;;;;;4981235;28;20485;-72
2022/04/13 05:02:50;;;;;;;8.47;3.80;;;13.60;99.90;;;;;;4990584;28;20453;-75
2022/04/13 05:05:19;;;;;;;6.00;3.70;;;13.60;99.90;;;;;;4996486;28;20953;-73
2022/04/13 05:07:46;;;;;;;7.63;3.80;;;13.60;99.90;;;;;;4994073;28;20551;-75
2022/04/13 05:10:13;;;;;;;9.80;3.50;;;13.60;99.90;;;;;;4998417;28;20489;-72
2022/04/13 05:12:44;;;;;;;9.20;5.87;;;13.70;99.90;;;;;;4992946;28;20435;-75
2022/04/13 05:15:12;;;;;;;7.73;5.00;;;13.60;99.90;;;;;;4993402;28;20467;-74
2022/04/13 05:17:39;;;;;;;23.27;7.23;;;13.60;99.90;;;;;;4995897;28;20476;-73
2022/04/13 05:20:08;;;;;;;7.40;3.70;;;13.70;99.90;;;;;;4992144;28;20477;-72
2022/04/13 05:22:36;;;;;;;7.27;5.33;;;13.80;99.90;;;;;;4997260;28;21006;-73
2022/04/13 05:25:04;;;;;;;6.93;3.97;;;13.60;99.90;;;;;;4993316;28;20509;-73
2022/04/13 05:27:31;;;;;;;11.30;4.60;;;13.70;99.90;;;;;;4992691;28;20506;-72
2022/04/13 05:29:58;;;;;;;5.43;3.80;;;13.80;99.90;;;;;;4995389;28;20577;-73
2022/04/13 05:32:24;;;;;;;5.87;3.60;;;13.90;99.90;;;;;;4996043;28;20443;-73
2022/04/13 05:34:57;;;;;;;6.07;3.83;;;13.90;99.90;;;;;;4993922;28;20460;-72
2022/04/13 05:37:24;;;;;;;6.73;4.20;;;14.10;99.90;;;;;;4995197;28;20486;-72
2022/04/13 05:39:52;;;;;;;7.90;4.17;;;14.20;99.90;;;;;;4992631;28;20476;-72
2022/04/13 05:42:22;;;;;;;5.70;4.00;;;14.40;99.90;;;;;;4994653;28;20531;-73
2022/04/13 05:44:48;;;;;;;17.13;3.57;;;14.50;99.90;;;;;;4992634;28;20431;-74
2022/04/13 05:47:15;;;;;;;17.73;3.40;;;14.60;99.90;;;;;;4995722;28;20845;-74
2022/04/13 05:49:41;;;;;;;9.60;3.87;;;14.80;99.90;;;;;;4994851;28;20957;-74
2022/04/13 05:52:08;;;;;;;8.87;5.03;;;15.00;99.90;;;;;;4993358;28;20457;-74
2022/04/13 05:54:35;;;;;;;9.63;3.47;;;15.10;99.90;;;;;;4991979;28;21031;-74
2022/04/13 05:57:03;;;;;;;8.90;4.80;;;15.30;99.90;;;;;;4993763;28;21008;-74
2022/04/13 05:59:30;;;;;;;14.20;5.30;;;15.60;99.90;;;;;;4991854;28;20803;-73
2022/04/13 06:01:57;;;;;;;10.43;5.17;;;15.80;99.90;;;;;;4986369;28;20539;-74
2022/04/13 06:04:23;;;;;;;16.40;5.13;;;16.10;99.90;;;;;;4994756;28;20527;-74
2022/04/13 06:06:50;;;;;;;17.00;4.10;;;16.50;99.90;;;;;;4994702;28;20484;-74
2022/04/13 06:09:17;;;;;;;9.63;4.27;;;16.80;99.90;;;;;;4992403;28;20473;-74
2022/04/13 06:11:43;;;;;;;7.33;3.77;;;17.20;99.90;;;;;;4996221;28;20523;-74
2022/04/13 06:14:11;;;;;;;11.00;5.10;;;17.40;99.90;;;;;;4997484;28;20971;-74
2022/04/13 06:16:38;;;;;;;11.40;4.73;;;17.80;99.90;;;;;;4991235;28;20959;-74
2022/04/13 06:19:04;;;;;;;19.67;6.27;;;18.10;99.90;;;;;;4994335;28;20453;-73
2022/04/13 06:21:31;;;;;;;11.93;4.40;;;18.30;99.90;;;;;;4991527;28;20631;-74
2022/04/13 06:23:58;;;;;;;6.00;4.50;;;18.60;99.90;;;;;;4993472;28;20466;-74
2022/04/13 06:26:24;;;;;;;25.47;7.83;;;18.80;99.90;;;;;;4993754;28;20508;-74
2022/04/13 06:28:51;;;;;;;4.77;3.40;;;19.10;99.90;;;;;;4992334;28;20461;-74
2022/04/13 06:31:19;;;;;;;7.70;3.70;;;19.20;99.90;;;;;;4999476;28;20996;-74
2022/04/13 06:33:47;;;;;;;11.90;3.60;;;19.30;99.90;;;;;;4989623;28;20842;-74
2022/04/13 06:36:14;;;;;;;5.20;3.20;;;19.00;99.90;;;;;;4998259;28;20470;-74
2022/04/13 06:38:41;;;;;;;5.97;3.77;;;19.00;99.90;;;;;;4996469;28;20464;-74
2022/04/13 06:41:08;;;;;;;12.07;4.00;;;19.10;99.90;;;;;;5000553;28;20489;-74
2022/04/13 06:43:34;;;;;;;5.43;3.30;;;19.30;99.90;;;;;;4997483;28;20462;-74
2022/04/13 06:46:01;;;;;;;4.50;3.27;;;19.10;99.90;;;;;;4990412;28;20973;-73
2022/04/13 06:48:29;;;;;;;7.67;4.17;;;19.30;99.90;;;;;;4997356;28;20480;-74
2022/04/13 06:50:56;;;;;;;6.67;3.43;;;19.20;99.90;;;;;;4994929;28;20484;-74
2022/04/13 06:53:22;;;;;;;10.67;4.17;;;19.70;99.90;;;;;;4998761;28;20590;-74
2022/04/13 06:55:49;;;;;;;8.73;4.60;;;20.10;99.90;;;;;;4994222;28;20488;-74
2022/04/13 06:58:16;;;;;;;11.90;4.50;;;20.30;99.90;;;;;;4995157;28;20496;-74
2022/04/13 07:00:43;;;;;;;10.67;5.07;;;20.40;99.90;;;;;;4988155;28;20496;-73
2022/04/13 07:03:10;;;;;;;19.17;5.33;;;20.40;99.90;;;;;;4998987;28;20488;-74
2022/04/13 07:05:38;;;;;;;15.13;5.27;;;20.60;99.90;;;;;;4992452;28;20461;-74
2022/04/13 07:08:06;;;;;;;7.40;4.87;;;20.80;99.90;;;;;;4997236;28;20866;-73
2022/04/13 07:10:33;;;;;;;16.03;4.30;;;21.00;99.90;;;;;;4993711;28;20849;-74
2022/04/13 07:13:00;;;;;;;6.90;4.00;;;20.70;99.90;;;;;;5000445;28;20554;-74
2022/04/13 07:15:27;;;;;;;15.87;4.50;;;20.60;99.90;;;;;;4998420;28;20481;-75
2022/04/13 07:17:54;;;;;;;7.03;4.83;;;20.20;99.90;;;;;;5001492;28;20806;-74
2022/04/13 07:20:21;;;;;;;7.40;5.20;;;20.00;99.90;;;;;;5000256;28;20493;-74
2022/04/13 07:22:53;;;;;;;14.80;6.30;;;19.80;99.90;;;;;;4999370;28;20903;-74
2022/04/13 07:25:21;;;;;;;10.47;6.10;;;20.30;99.90;;;;;;4996686;28;20453;-74
2022/04/13 07:27:49;;;;;;;6.37;5.10;;;20.40;99.90;;;;;;4990766;28;20461;-72
2022/04/13 07:30:16;;;;;;;10.20;5.20;;;19.90;99.90;;;;;;4993158;28;20481;-72
2022/04/13 07:32:44;;;;;;;7.07;5.57;;;19.80;99.90;;;;;;4999748;28;20825;-73
2022/04/13 07:35:11;;;;;;;12.07;4.90;;;19.90;99.90;;;;;;4998796;28;20496;-73
2022/04/13 07:37:40;;;;;;;20.03;6.53;;;20.40;99.90;;;;;;4995623;28;20468;-74
2022/04/13 07:40:11;;;;;;;11.57;7.00;;;21.10;99.90;;;;;;4992805;28;20551;-73
2022/04/13 07:42:38;;;;;;;9.97;6.40;;;21.50;99.90;;;;;;4999291;28;20559;-72
2022/04/13 07:45:06;;;;;;;7.90;5.57;;;21.30;99.90;;;;;;5003892;28;20461;-73
2022/04/13 07:47:33;;;;;;;13.20;5.87;;;21.50;99.90;;;;;;5003443;28;20497;-75
2022/04/13 07:50:00;;;;;;;8.33;5.57;;;21.50;99.90;;;;;;5003822;28;20554;-73
2022/04/13 07:52:27;;;;;;;9.83;6.30;;;21.80;99.90;;;;;;5004142;28;20462;-73
2022/04/13 07:54:53;;;;;;;10.90;5.60;;;22.10;99.90;;;;;;5004306;28;20461;-76
2022/04/13 07:57:21;;;;;;;9.40;5.80;;;22.40;99.90;;;;;;5005188;28;20469;-73
2022/04/13 07:59:49;;;;;;;10.07;6.00;;;22.40;99.90;;;;;;5000776;28;20704;-73
2022/04/13 08:02:20;;;;;;;12.03;6.60;;;23.00;99.90;;;;;;4999357;28;20910;-76
2022/04/13 08:04:47;;;;;;;15.83;6.67;;;22.60;99.90;;;;;;5003900;28;21088;-72
2022/04/13 08:07:14;;;;;;;8.20;5.60;;;23.80;99.90;;;;;;5003123;28;20465;-73
2022/04/13 08:09:41;;;;;;;9.97;5.53;;;24.30;99.90;;;;;;4998297;28;21111;-73
2022/04/13 08:12:08;;;;;;;17.93;6.80;;;24.20;99.90;;;;;;5001715;28;20515;-74
2022/04/13 08:14:36;;;;;;;10.40;6.17;;;23.70;99.90;;;;;;4999184;28;20469;-75
2022/04/13 08:17:03;;;;;;;17.63;7.23;;;24.00;99.90;;;;;;5001319;28;20481;-74
2022/04/13 08:19:30;;;;;;;8.07;5.33;;;24.50;99.90;;;;;;4993724;28;20453;-72
2022/04/13 08:21:57;;;;;;;41.20;8.33;;;24.60;99.90;;;;;;4999532;28;20561;-74
2022/04/13 08:24:24;;;;;;;13.10;6.80;;;24.50;99.90;;;;;;5000818;28;20465;-74
2022/04/13 08:26:50;;;;;;;11.00;6.67;;;24.60;99.90;;;;;;4988784;28;20467;-73
2022/04/13 08:29:17;;;;;;;11.27;6.23;;;25.20;99.10;;;;;;4994314;28;20981;-74
2022/04/13 08:31:45;;;;;;;11.33;6.40;;;25.40;98.30;;;;;;5003264;28;20489;-74
2022/04/13 08:34:12;;;;;;;11.80;6.97;;;25.60;97.90;;;;;;5001572;28;20889;-74
2022/04/13 08:36:39;;;;;;;10.80;5.73;;;26.20;97.50;;;;;;5001832;28;20485;-74
2022/04/13 08:39:13;;;;;;;9.80;6.67;;;26.40;96.40;;;;;;4997077;28;20458;-74
2022/04/13 08:41:46;;;;;;;9.00;6.03;;;26.60;95.70;;;;;;5002792;28;20928;-75
2022/04/13 08:44:16;;;;;;;8.07;6.47;;;26.30;95.00;;;;;;5004347;28;20469;-74
2022/04/13 08:46:47;;;;;;;21.80;6.20;;;26.60;95.20;;;;;;5003891;28;20461;-74
2022/04/13 08:49:15;;;;;;;9.57;6.80;;;27.10;94.10;;;;;;5005059;28;20457;-75
2022/04/13 08:51:42;;;;;;;14.23;9.50;;;27.20;92.70;;;;;;5001623;28;20543;-74
2022/04/13 08:54:14;;;;;;;12.03;7.20;;;26.60;94.20;;;;;;5001386;28;20457;-75
2022/04/13 08:56:44;;;;;;;17.90;7.33;;;27.30;93.80;;;;;;4998334;28;20681;-75
2022/04/13 08:59:23;;;;;;;19.27;7.03;;;27.50;91.40;;;;;;5000790;28;20470;-75
2022/04/13 09:01:59;;;;;;;13.53;7.13;;;28.10;91.40;;;;;;5000691;28;20515;-72
2022/04/13 09:04:28;;;;;;;12.13;7.03;;;27.70;90.00;;;;;;5000958;28;21108;-73
2022/04/13 09:06:57;;;;;;;13.57;5.30;;;27.10;90.10;;;;;;5001734;28;20465;-73
2022/04/13 09:09:31;;;;;;;10.83;6.20;;;27.20;89.70;;;;;;4997126;28;20539;-73
2022/04/13 09:11:58;;;;;;;8.17;6.57;;;27.90;88.70;;;;;;4999392;28;20507;-73
2022/04/13 09:14:28;;;;;;;12.00;6.60;;;28.30;86.20;;;;;;4997233;28;20465;-71
2022/04/13 09:16:56;;;;;;;12.90;6.50;;;29.30;84.40;;;;;;5001023;28;20485;-73
2022/04/13 09:19:25;;;;;;;15.63;6.47;;;29.80;84.30;;;;;;5001294;28;21042;-73
2022/04/13 09:21:52;;;;;;;12.70;6.57;;;29.30;84.00;;;;;;5001134;28;20465;-75
2022/04/13 09:24:20;;;;;;;9.50;5.73;;;29.50;80.50;;;;;;5000369;28;21602;-74
2022/04/13 09:26:46;;;;;;;15.53;7.50;;;29.90;80.50;;;;;;5000508;28;20468;-75
2022/04/13 09:29:13;;;;;;;15.30;6.00;;;29.70;77.50;;;;;;5004483;28;20520;-75
2022/04/13 09:31:40;;;;;;;12.70;6.87;;;29.20;78.70;;;;;;5003412;28;20489;-75
2022/04/13 09:34:09;;;;;;;12.80;6.30;;;29.60;78.70;;;;;;5000477;28;20453;-75
2022/04/13 09:36:36;;;;;;;20.10;5.80;;;29.50;78.90;;;;;;5001689;28;20495;-75
2022/04/13 09:39:03;;;;;;;9.37;5.53;;;30.00;77.70;;;;;;5000158;28;20469;-74
2022/04/13 09:41:34;;;;;;;9.93;5.30;;;29.70;74.60;;;;;;5003041;28;21137;-75
2022/04/13 09:44:01;;;;;;;12.30;5.67;;;30.00;75.30;;;;;;5019022;22;20665;-71
2022/04/13 09:46:29;;;;;;;6.30;4.60;;;30.50;73.80;;;;;;5016498;28;20456;-72
2022/04/13 09:49:10;;;;;;;7.20;5.00;;;31.00;72.90;;;;;;5018174;28;20472;-72
2022/04/13 09:51:38;;;;;;;6.40;4.93;;;30.80;71.40;;;;;;5017317;28;20521;-72
2022/04/13 09:54:08;;;;;;;7.63;5.23;;;30.90;70.50;;;;;;5006995;28;20604;-72
2022/04/13 09:56:37;;;;;;;10.50;6.10;;;30.60;69.30;;;;;;5000720;28;20488;-72
2022/04/13 09:59:05;;;;;;;10.23;5.30;;;30.90;68.40;;;;;;5003153;28;20549;-73
2022/04/13 10:01:33;;;;;;;13.33;5.63;;;30.70;69.70;;;;;;5019947;28;20555;-72
2022/04/13 10:04:00;;;;;;;12.70;5.23;;;30.90;69.90;;;;;;5009662;28;20483;-70
2022/04/13 10:06:29;;;;;;;9.70;4.50;;;30.40;66.50;;;;;;5015993;28;20459;-72
2022/04/13 10:09:00;;;;;;;5.53;4.27;;;30.90;67.40;;;;;;5002017;28;20980;-71
2022/04/13 10:11:27;;;;;;;7.47;5.73;;;31.40;67.20;;;;;;5004091;28;20462;-71
2022/04/13 10:49:09;;;;;;;10.00;3.83;;;30.20;63.80;;;;;;5130227;27;20708;-72
2022/04/13 10:51:39;;;;;;;7.87;3.27;;;30.70;67.40;;;;;;5132567;27;20471;-72
2022/04/13 11:05:33;;;;;;;3.83;2.07;;;29.90;57.70;;;;;;5045136;28;20681;-70
2022/04/13 11:08:13;;;;;;;4.13;1.43;;;29.20;59.40;;;;;;5065851;28;20466;-70
2022/04/13 11:10:43;;;;;;;2.10;1.60;;;29.40;59.90;;;;;;5062438;28;20527;-70
2022/04/13 11:13:11;;;;;;;2.77;2.07;;;30.10;61.40;;;;;;5055411;28;20924;-70
2022/04/13 11:15:39;;;;;;;2.43;1.50;;;29.60;60.70;;;;;;5058611;28;20492;-70
2022/04/13 11:18:10;;;;;;;5.93;2.10;;;30.10;59.50;;;;;;5060877;28;20461;-71
2022/04/13 11:20:54;;;;;;;2.47;2.00;;;30.20;61.00;;;;;;5059234;28;20463;-72
2022/04/13 11:23:21;;;;;;;4.67;3.33;;;29.80;60.80;;;;;;5056304;28;20524;-72
2022/04/13 11:25:54;;;;;;;5.47;3.60;;;30.20;61.40;;;;;;5057192;28;20462;-73
2022/04/13 11:28:26;;;;;;;6.30;2.43;;;30.90;60.70;;;;;;5068063;28;20556;-71
2022/04/13 11:31:07;;;;;;;3.37;2.20;;;29.70;60.20;;;;;;5070213;28;20459;-72
2022/04/13 11:33:50;;;;;;;4.33;2.03;;;30.20;61.80;;;;;;5071109;28;20477;-73
2022/04/13 11:36:20;;;;;;;11.23;2.40;;;31.00;63.00;;;;;;5065386;28;20555;-73
2022/04/13 11:38:48;;;;;;;4.30;2.03;;;30.40;60.80;;;;;;5055504;28;20462;-72
2022/04/13 11:41:15;;;;;;;4.50;2.33;;;30.70;61.70;;;;;;5066637;28;20463;-73
2022/04/13 11:43:46;;;;;;;4.53;2.33;;;31.50;59.70;;;;;;5065478;28;20478;-72
2022/04/13 11:46:36;;;;;;;2.80;2.20;;;32.40;59.10;;;;;;5064554;28;20534;-71
2022/04/13 11:49:03;;;;;;;4.00;2.20;;;32.30;58.50;;;;;;5062955;28;20559;-72
2022/04/13 11:51:32;;;;;;;6.50;2.43;;;32.40;59.10;;;;;;5067247;28;20453;-71
2022/04/13 11:54:06;;;;;;;7.13;2.80;;;31.20;59.50;;;;;;5067585;28;20473;-72
2022/04/13 11:56:34;;;;;;;4.70;2.50;;;30.40;60.00;;;;;;5060236;28;21103;-73
2022/04/13 11:59:01;;;;;;;5.50;2.70;;;30.30;61.60;;;;;;5060989;28;20830;-72
2022/04/13 12:01:28;;;;;;;4.07;2.90;;;29.40;62.20;;;;;;5063408;28;20962;-71
2022/04/13 12:03:56;;;;;;;7.13;3.43;;;28.30;64.80;;;;;;5059513;28;20501;-71
2022/04/13 12:06:25;;;;;;;7.63;2.93;;;27.30;67.20;;;;;;5059926;28;20475;-72
2022/04/13 12:08:54;;;;;;;2.53;2.33;;;27.00;68.20;;;;;;5058531;28;20559;-72
2022/04/13 12:11:22;;;;;;;4.93;3.23;;;26.70;71.00;;;;;;5045923;28;22065;-72
2022/04/13 12:13:51;;;;;;;6.60;2.40;;;26.30;70.50;;;;;;5059144;28;20477;-71
2022/04/13 12:16:23;;;;;;;4.77;1.83;;;26.20;70.90;;;;;;5060686;28;20454;-72
2022/04/13 12:18:50;;;;;;;4.43;2.30;;;26.10;70.70;;;;;;5058153;28;20494;-71
2022/04/13 12:21:17;;;;;;;4.40;2.73;;;25.70;72.70;;;;;;5052995;28;20528;-72
2022/04/13 12:23:45;;;;;;;6.20;3.30;;;25.60;73.90;;;;;;5056428;28;20732;-72
2022/04/13 12:26:15;;;;;;;6.50;2.70;;;25.80;75.20;;;;;;5052992;28;20467;-72
2022/04/13 12:28:42;;;;;;;4.80;2.77;;;25.50;77.20;;;;;;5053355;28;20844;-71
2022/04/13 12:31:10;;;;;;;5.83;3.00;;;25.40;79.00;;;;;;5054344;28;20459;-72
2022/04/13 12:33:39;;;;;;;5.20;3.27;;;25.30;80.60;;;;;;5057140;28;20870;-72
2022/04/13 12:36:07;;;;;;;9.50;4.47;;;25.10;80.20;;;;;;5056716;28;20482;-71
2022/04/13 12:38:35;;;;;;;7.43;3.47;;;25.10;81.90;;;;;;5051363;28;20481;-70
2022/04/13 12:41:22;;;;;;;6.03;3.00;;;25.00;81.40;;;;;;5056642;28;20468;-72
2022/04/13 12:43:54;;;;;;;6.97;3.60;;;24.80;83.10;;;;;;5057467;28;20483;-71
2022/04/13 12:46:22;;;;;;;7.17;3.53;;;24.90;83.70;;;;;;5054716;28;20471;-73
2022/04/13 12:48:51;;;;;;;7.77;3.20;;;25.60;82.60;;;;;;5057304;28;20501;-71
2022/04/13 12:51:18;;;;;;;8.60;3.67;;;27.30;79.90;;;;;;5047388;28;20455;-72
2022/04/13 12:53:48;;;;;;;6.47;4.00;;;27.80;78.70;;;;;;5047904;28;20467;-72
2022/04/13 12:56:16;;;;;;;6.17;3.00;;;28.40;76.30;;;;;;5048293;28;20481;-71
2022/04/13 12:58:44;;;;;;;7.53;2.90;;;28.80;73.10;;;;;;5049535;28;20471;-72
2022/04/13 13:01:21;;;;;;;5.83;2.87;;;28.40;75.40;;;;;;5047438;28;20952;-72
2022/04/13 13:03:48;;;;;;;2.87;2.17;;;27.80;72.70;;;;;;5048269;28;20991;-71
2022/04/13 13:06:15;;;;;;;2.83;2.47;;;26.80;75.10;;;;;;5052822;28;20873;-71
2022/04/13 13:08:51;;;;;;;5.43;2.37;;;26.20;75.50;;;;;;5044244;28;20451;-71
2022/04/13 13:11:19;;;;;;;4.37;2.80;;;27.00;74.60;;;;;;5056725;28;20568;-72
2022/04/13 13:13:47;;;;;;;7.10;2.13;;;28.40;73.40;;;;;;5068558;28;20564;-71
2022/04/13 13:16:36;;;;;;;6.17;2.20;;;28.50;72.00;;;;;;5071613;28;21017;-72
2022/04/13 13:19:11;;;;;;;4.80;2.60;;;28.00;72.50;;;;;;5053835;28;20455;-72
2022/04/13 13:21:37;;;;;;;9.53;2.30;;;27.40;76.00;;;;;;5066248;28;20512;-71
2022/04/13 13:24:05;;;;;;;5.13;2.10;;;28.40;73.70;;;;;;5053186;28;20482;-71
2022/04/13 13:26:31;;;;;;;2.80;2.60;;;29.40;73.60;;;;;;5059149;28;20991;-71
2022/04/13 13:29:02;;;;;;;2.60;2.00;;;29.80;70.20;;;;;;5064962;28;20470;-71
2022/04/13 13:31:32;;;;;;;10.30;2.77;;;29.40;70.60;;;;;;5066392;28;20935;-71
2022/04/13 13:33:58;;;;;;;3.20;2.90;;;28.90;70.50;;;;;;5056472;28;20476;-71
2022/04/13 13:36:25;;;;;;;5.90;2.67;;;28.00;71.50;;;;;;5060839;28;20465;-72
2022/04/13 13:38:52;;;;;;;7.87;2.90;;;27.50;73.50;;;;;;5059189;28;20487;-72
2022/04/13 13:41:21;;;;;;;3.80;2.10;;;27.00;73.80;;;;;;5059986;28;20469;-72